Time;durP1;ratioP1;P1;durP2;ratioP2;P2;SDS_P1;SDS_P2;PMS_P1;PMS_P2;Temp;Humidity;BMP_temperature;BMP_pressure;BME280_temperature;BME280_humidity;BME280_pressure;Samples;Min_cycle;Max_cycle;Signal;HPM_P1;HPM_P2
2023/08/10 00:02:02;;;;;;;1.20;1.00;;;19.70;99.40;;;;;;5131895;27;20194;-83
2023/08/10 00:04:35;;;;;;;3.88;0.80;;;19.80;99.10;;;;;;5133811;27;20193;-84
2023/08/10 00:07:06;;;;;;;1.65;1.00;;;19.80;97.50;;;;;;5131443;27;20208;-84
2023/08/10 00:09:36;;;;;;;1.42;0.80;;;19.90;97.90;;;;;;5131876;27;20259;-84
2023/08/10 00:12:08;;;;;;;2.22;1.00;;;20.10;98.10;;;;;;5130698;27;20198;-84
2023/08/10 00:14:39;;;;;;;2.25;1.08;;;20.10;97.40;;;;;;5131371;27;20214;-84
2023/08/10 00:17:12;;;;;;;1.63;1.00;;;20.10;97.20;;;;;;5131013;27;20217;-83
2023/08/10 00:19:42;;;;;;;2.97;1.00;;;20.20;96.60;;;;;;5151749;27;20201;-83
2023/08/10 00:22:13;;;;;;;2.53;0.90;;;20.30;94.90;;;;;;5151076;27;20216;-84
2023/08/10 00:24:44;;;;;;;5.05;0.90;;;20.40;94.80;;;;;;5152741;27;20197;-83
2023/08/10 00:27:15;;;;;;;1.00;0.85;;;20.50;94.10;;;;;;5151669;27;20238;-82
2023/08/10 00:29:46;;;;;;;3.60;1.10;;;20.60;94.90;;;;;;5147890;27;20644;-83
2023/08/10 00:32:19;;;;;;;1.77;1.00;;;20.60;94.10;;;;;;5151728;27;20622;-82
2023/08/10 00:34:50;;;;;;;4.10;1.00;;;20.60;93.40;;;;;;5151599;27;20352;-82
2023/08/10 00:37:21;;;;;;;3.15;0.93;;;20.60;93.10;;;;;;5146357;27;20195;-82
2023/08/10 00:39:52;;;;;;;3.92;0.98;;;20.60;92.60;;;;;;5150843;27;20652;-83
2023/08/10 00:42:23;;;;;;;0.80;0.80;;;20.70;92.70;;;;;;5151443;27;20196;-83
2023/08/10 00:44:54;;;;;;;3.53;1.10;;;20.80;92.80;;;;;;5151618;27;20198;-83
2023/08/10 00:47:27;;;;;;;2.15;1.02;;;20.90;92.40;;;;;;5132251;27;20194;-83
2023/08/10 00:49:58;;;;;;;2.15;1.10;;;21.00;92.70;;;;;;5153196;27;20227;-84
2023/08/10 00:52:28;;;;;;;1.88;1.00;;;21.10;93.00;;;;;;5155276;27;20205;-83
2023/08/10 00:54:59;;;;;;;2.20;0.90;;;21.20;91.80;;;;;;5154527;27;20220;-83
2023/08/10 00:57:31;;;;;;;1.02;0.90;;;21.20;91.30;;;;;;5151360;27;20201;-83
2023/08/10 01:00:05;;;;;;;4.07;1.20;;;21.30;91.20;;;;;;5134062;27;20186;-83
2023/08/10 01:02:38;;;;;;;2.47;0.90;;;21.30;90.70;;;;;;5133975;27;20232;-83
2023/08/10 01:05:10;;;;;;;2.15;1.27;;;21.30;89.80;;;;;;5146298;27;20208;-83
2023/08/10 01:08:02;;;;;;;1.25;0.95;;;21.40;90.00;;;;;;5154251;27;20201;-82
2023/08/10 01:10:40;;;;;;;1.95;1.05;;;21.40;89.00;;;;;;5134473;27;20612;-83
2023/08/10 01:13:22;;;;;;;5.80;1.40;;;21.40;89.30;;;;;;5134856;27;20695;-82
2023/08/10 01:15:56;;;;;;;5.53;1.20;;;21.50;90.30;;;;;;5134057;27;20254;-83
2023/08/10 01:18:30;;;;;;;1.38;1.00;;;21.60;89.20;;;;;;5132232;27;20226;-83
2023/08/10 01:21:03;;;;;;;1.50;0.95;;;21.80;90.00;;;;;;5133407;27;20185;-83
2023/08/10 01:23:37;;;;;;;1.10;1.00;;;21.90;87.00;;;;;;5133775;27;20571;-83
2023/08/10 01:26:11;;;;;;;1.17;0.93;;;22.00;85.90;;;;;;5137375;27;20193;-84
2023/08/10 01:28:43;;;;;;;1.42;1.13;;;22.10;84.00;;;;;;5132669;27;20205;-82
2023/08/10 01:31:14;;;;;;;1.67;1.08;;;22.10;84.10;;;;;;5134129;27;20222;-84
2023/08/10 01:33:44;;;;;;;1.33;0.88;;;22.20;83.00;;;;;;5133556;27;20232;-83
2023/08/10 01:36:15;;;;;;;1.20;0.90;;;22.20;82.20;;;;;;5132584;27;20198;-85
2023/08/10 01:38:46;;;;;;;1.05;0.82;;;22.20;81.40;;;;;;5133455;27;20200;-84
2023/08/10 01:41:19;;;;;;;2.85;1.10;;;22.30;82.30;;;;;;5144794;27;20276;-84
2023/08/10 01:43:50;;;;;;;1.65;0.93;;;22.40;81.80;;;;;;5153625;27;20195;-84
2023/08/10 01:46:24;;;;;;;2.20;1.00;;;22.40;82.00;;;;;;5153916;27;20193;-84
2023/08/10 01:48:57;;;;;;;2.28;0.90;;;22.40;81.90;;;;;;5133859;27;20237;-84
2023/08/10 01:51:30;;;;;;;1.85;0.90;;;22.60;82.00;;;;;;5134696;27;20204;-83
2023/08/10 01:54:04;;;;;;;5.10;1.00;;;22.60;81.70;;;;;;5132166;27;20312;-84
2023/08/10 01:56:37;;;;;;;3.20;1.00;;;22.60;80.00;;;;;;5133405;27;20206;-84
2023/08/10 01:59:08;;;;;;;1.05;0.85;;;22.50;80.80;;;;;;5145835;27;20560;-85
2023/08/10 02:01:39;;;;;;;1.02;0.90;;;22.50;80.00;;;;;;5146155;27;20194;-84
2023/08/10 02:04:10;;;;;;;1.38;1.00;;;22.60;81.10;;;;;;5134687;27;20192;-85
2023/08/10 02:06:40;;;;;;;0.98;0.90;;;22.70;81.30;;;;;;5133889;27;20194;-85
2023/08/10 02:09:11;;;;;;;4.38;1.23;;;22.80;80.00;;;;;;5132377;27;20205;-84
2023/08/10 02:11:44;;;;;;;1.92;1.08;;;22.90;79.40;;;;;;5147432;27;20198;-84
2023/08/10 02:14:15;;;;;;;1.98;1.00;;;23.00;79.10;;;;;;5153459;27;20295;-85
2023/08/10 02:16:45;;;;;;;2.17;1.00;;;23.10;78.10;;;;;;5153418;27;20197;-84
2023/08/10 02:19:16;;;;;;;2.53;1.00;;;23.10;77.20;;;;;;5153197;27;20577;-85
2023/08/10 02:21:47;;;;;;;1.42;0.77;;;23.20;76.10;;;;;;5138341;27;20194;-85
2023/08/10 02:24:18;;;;;;;1.38;1.02;;;23.30;76.40;;;;;;5132523;27;20198;-84
2023/08/10 02:26:52;;;;;;;1.75;0.80;;;23.20;74.30;;;;;;5131908;27;20653;-85
2023/08/10 02:29:23;;;;;;;2.70;0.88;;;23.00;70.60;;;;;;5137594;27;20235;-84
2023/08/10 02:31:54;;;;;;;1.23;0.98;;;22.90;71.70;;;;;;5137146;27;20193;-83
2023/08/10 02:34:25;;;;;;;4.28;1.02;;;22.80;69.20;;;;;;5134651;27;20309;-85
2023/08/10 02:36:56;;;;;;;5.25;1.25;;;22.70;71.00;;;;;;5132314;27;20197;-84
2023/08/10 02:39:27;;;;;;;4.25;1.10;;;22.60;62.90;;;;;;5134708;27;20190;-84
2023/08/10 02:42:00;;;;;;;7.13;1.17;;;22.50;62.20;;;;;;5132265;27;20194;-84
2023/08/10 02:44:30;;;;;;;2.75;0.90;;;22.50;61.10;;;;;;5143655;27;20540;-84
2023/08/10 02:47:01;;;;;;;1.75;0.93;;;22.50;61.60;;;;;;5152277;27;20674;-83
2023/08/10 02:49:33;;;;;;;3.33;0.90;;;22.70;61.30;;;;;;5148730;27;20277;-84
2023/08/10 02:52:03;;;;;;;2.47;1.20;;;22.90;60.90;;;;;;5142017;27;20193;-83
2023/08/10 02:54:34;;;;;;;1.55;1.05;;;23.20;59.80;;;;;;5131290;27;20593;-84
2023/08/10 02:57:07;;;;;;;8.88;1.25;;;23.40;58.30;;;;;;5131725;27;20209;-83
2023/08/10 02:59:38;;;;;;;2.22;1.00;;;23.50;58.30;;;;;;5131651;27;20201;-84
2023/08/10 03:02:09;;;;;;;6.60;0.93;;;23.70;58.60;;;;;;5132242;27;20197;-82
2023/08/10 03:04:39;;;;;;;2.88;1.00;;;23.60;58.10;;;;;;5139567;27;20568;-83
2023/08/10 03:07:11;;;;;;;1.80;0.80;;;23.60;57.60;;;;;;5145685;27;20186;-83
2023/08/10 03:09:42;;;;;;;2.30;1.00;;;23.40;57.80;;;;;;5133432;27;20285;-86
2023/08/10 03:12:14;;;;;;;1.95;0.90;;;23.30;58.50;;;;;;5131922;27;20201;-86
2023/08/10 03:14:45;;;;;;;1.75;0.90;;;23.40;56.30;;;;;;5138118;27;20217;-87
2023/08/10 03:17:16;;;;;;;2.35;0.90;;;23.50;54.30;;;;;;5131854;27;20298;-87
2023/08/10 03:19:47;;;;;;;1.10;0.70;;;23.50;55.20;;;;;;5141885;27;20197;-87
2023/08/10 03:22:18;;;;;;;1.48;0.82;;;23.60;56.90;;;;;;5136204;27;20402;-87
2023/08/10 03:24:49;;;;;;;2.42;0.70;;;23.70;55.50;;;;;;5132174;27;20205;-87
2023/08/10 03:27:22;;;;;;;2.88;0.80;;;23.60;56.20;;;;;;5131718;27;20200;-88
2023/08/10 03:29:52;;;;;;;4.90;0.82;;;23.50;55.40;;;;;;5131676;27;20204;-87
2023/08/10 03:32:23;;;;;;;3.33;0.70;;;23.60;54.90;;;;;;5135767;27;20196;-87
2023/08/10 03:34:54;;;;;;;0.75;0.75;;;23.60;55.30;;;;;;5136155;27;20594;-88
2023/08/10 03:37:25;;;;;;;1.38;0.80;;;23.60;55.30;;;;;;5136014;27;20201;-88
2023/08/10 03:39:56;;;;;;;0.77;0.60;;;23.60;54.80;;;;;;5158372;27;20190;-87
2023/08/10 03:42:30;;;;;;;0.60;0.60;;;23.60;54.20;;;;;;5146019;27;20228;-89
2023/08/10 03:45:01;;;;;;;2.15;0.80;;;23.60;53.50;;;;;;5154161;27;20400;-85
2023/08/10 03:47:32;;;;;;;1.90;0.60;;;23.50;53.90;;;;;;5140663;27;20697;-85
2023/08/10 03:50:03;;;;;;;2.30;0.75;;;23.70;54.90;;;;;;5151650;27;20224;-85
2023/08/10 03:52:34;;;;;;;1.05;0.60;;;23.80;54.50;;;;;;5152118;27;20193;-85
2023/08/10 03:55:05;;;;;;;2.25;0.65;;;23.70;53.70;;;;;;5137091;27;20218;-87
2023/08/10 03:57:38;;;;;;;4.43;0.60;;;23.70;54.00;;;;;;5141611;27;20193;-88
2023/08/10 04:00:10;;;;;;;3.10;0.85;;;23.70;53.50;;;;;;5133906;27;20201;-87
2023/08/10 04:02:41;;;;;;;3.83;1.00;;;23.70;52.90;;;;;;5132915;27;20196;-86
2023/08/10 04:05:12;;;;;;;1.50;0.80;;;23.70;53.60;;;;;;5135205;27;20198;-88
2023/08/10 04:07:45;;;;;;;3.15;0.80;;;23.80;53.50;;;;;;5132020;27;20190;-87
2023/08/10 04:10:16;;;;;;;2.17;0.80;;;23.80;52.90;;;;;;5135792;27;20213;-87
2023/08/10 04:12:50;;;;;;;2.05;1.00;;;23.80;53.20;;;;;;5148765;27;20670;-87
2023/08/10 04:15:21;;;;;;;5.65;0.80;;;23.80;52.50;;;;;;5132102;27;20214;-87
2023/08/10 04:17:52;;;;;;;2.90;0.70;;;23.90;52.80;;;;;;5131471;27;20226;-88
2023/08/10 04:20:23;;;;;;;0.50;0.50;;;23.90;52.90;;;;;;5138562;27;20197;-88
2023/08/10 04:22:57;;;;;;;1.70;0.70;;;23.90;52.60;;;;;;5137279;27;20243;-87
2023/08/10 04:25:28;;;;;;;1.02;0.60;;;23.80;52.40;;;;;;5135486;27;20541;-87
2023/08/10 04:28:01;;;;;;;3.90;0.73;;;23.70;53.10;;;;;;5136941;27;20207;-87
2023/08/10 04:30:32;;;;;;;1.98;0.70;;;23.60;53.40;;;;;;5142567;27;20203;-86
2023/08/10 04:33:03;;;;;;;3.03;0.90;;;23.40;53.80;;;;;;5156145;27;20228;-87
2023/08/10 04:35:40;;;;;;;1.88;0.70;;;23.40;53.40;;;;;;5142262;27;20209;-86
2023/08/10 04:38:12;;;;;;;2.55;0.70;;;23.30;53.60;;;;;;5147302;27;20194;-87
2023/08/10 04:40:43;;;;;;;5.65;0.90;;;23.10;54.00;;;;;;5135275;27;20255;-87
2023/08/10 04:43:15;;;;;;;1.10;0.75;;;22.90;53.80;;;;;;5134837;27;20198;-88
2023/08/10 04:45:47;;;;;;;2.08;0.70;;;22.90;54.10;;;;;;5148093;27;20216;-87
2023/08/10 04:48:18;;;;;;;2.35;0.77;;;22.70;54.40;;;;;;5139934;27;20250;-87
2023/08/10 04:50:49;;;;;;;3.33;0.80;;;22.70;54.10;;;;;;5131051;27;20193;-86
2023/08/10 04:53:22;;;;;;;2.45;0.80;;;22.70;53.90;;;;;;5160048;27;20191;-88
2023/08/10 04:55:54;;;;;;;3.45;0.82;;;22.70;54.10;;;;;;5174060;27;20236;-85
2023/08/10 04:58:29;;;;;;;1.65;0.80;;;22.70;54.20;;;;;;5168041;27;20719;-86
2023/08/10 05:01:02;;;;;;;2.92;1.10;;;22.60;53.90;;;;;;5136773;27;20373;-86
2023/08/10 05:03:34;;;;;;;2.17;0.95;;;22.50;55.00;;;;;;5151301;27;20194;-86
2023/08/10 05:06:05;;;;;;;2.33;0.80;;;22.60;54.60;;;;;;5116758;27;20202;-87
2023/08/10 05:08:36;;;;;;;1.30;0.63;;;22.60;55.00;;;;;;5139909;27;20199;-87
2023/08/10 05:11:07;;;;;;;6.90;0.70;;;22.70;55.20;;;;;;5135514;27;20201;-86
2023/08/10 05:13:40;;;;;;;4.43;0.75;;;22.80;55.70;;;;;;5139903;27;20190;-85
2023/08/10 05:16:10;;;;;;;3.28;0.70;;;22.90;55.50;;;;;;5135999;27;20214;-86
2023/08/10 05:18:41;;;;;;;1.23;0.60;;;22.90;54.20;;;;;;5134790;27;20236;-87
2023/08/10 05:21:12;;;;;;;3.83;0.73;;;22.90;54.60;;;;;;5134802;27;20201;-86
2023/08/10 05:23:43;;;;;;;4.78;0.77;;;22.80;54.10;;;;;;5135246;27;20194;-87
2023/08/10 05:26:14;;;;;;;1.85;0.60;;;22.90;53.70;;;;;;5134660;27;20201;-87
2023/08/10 05:28:47;;;;;;;0.88;0.70;;;22.80;53.80;;;;;;5135330;27;20190;-88
2023/08/10 05:31:18;;;;;;;8.20;0.70;;;22.80;53.40;;;;;;5134374;27;20568;-86
2023/08/10 05:33:49;;;;;;;4.40;0.75;;;22.80;52.70;;;;;;5146050;27;20243;-86
2023/08/10 05:36:19;;;;;;;1.45;0.70;;;22.80;52.70;;;;;;5135289;27;20228;-86
2023/08/10 05:38:50;;;;;;;1.67;0.70;;;22.90;53.80;;;;;;5139398;27;20194;-87
2023/08/10 05:41:21;;;;;;;3.58;1.00;;;22.90;54.20;;;;;;5136212;27;20209;-86
2023/08/10 05:43:57;;;;;;;1.90;0.80;;;22.80;53.50;;;;;;5142125;27;20182;-87
2023/08/10 05:46:29;;;;;;;3.78;0.80;;;22.80;53.70;;;;;;5135772;27;20198;-87
2023/08/10 05:49:00;;;;;;;3.63;1.02;;;22.80;51.00;;;;;;5134276;27;20567;-87
2023/08/10 05:51:31;;;;;;;2.80;0.80;;;22.80;50.80;;;;;;5139890;27;20213;-87
2023/08/10 05:54:02;;;;;;;0.70;0.70;;;22.80;51.10;;;;;;5145663;27;20621;-88
2023/08/10 05:56:33;;;;;;;2.00;0.80;;;22.90;51.60;;;;;;5146400;27;20229;-86
2023/08/10 05:59:06;;;;;;;1.40;0.80;;;22.80;50.70;;;;;;5135860;27;20208;-87
2023/08/10 06:01:37;;;;;;;1.05;0.70;;;22.80;50.00;;;;;;5141796;27;20185;-87
2023/08/10 06:04:10;;;;;;;1.98;0.90;;;22.70;49.80;;;;;;5155327;27;20557;-86
2023/08/10 06:06:40;;;;;;;2.60;0.77;;;22.80;49.90;;;;;;5152503;27;20190;-85
2023/08/10 06:09:12;;;;;;;1.58;0.75;;;22.80;49.50;;;;;;5147924;27;20202;-86
2023/08/10 06:11:43;;;;;;;4.35;0.82;;;22.80;49.20;;;;;;5146085;27;20190;-86
2023/08/10 06:14:16;;;;;;;1.95;0.70;;;22.80;48.10;;;;;;5141194;27;20285;-86
2023/08/10 06:16:49;;;;;;;2.55;0.80;;;22.70;48.50;;;;;;5134571;27;20222;-87
2023/08/10 06:19:21;;;;;;;1.55;0.70;;;22.80;48.00;;;;;;5139704;27;20619;-87
2023/08/10 06:21:52;;;;;;;5.05;0.63;;;22.80;47.80;;;;;;5155266;27;20196;-87
2023/08/10 06:24:22;;;;;;;1.85;0.90;;;23.00;47.50;;;;;;5154781;27;20249;-86
2023/08/10 06:26:53;;;;;;;1.65;0.52;;;23.00;46.50;;;;;;5153850;27;20193;-88
2023/08/10 06:29:27;;;;;;;1.45;0.73;;;23.10;47.40;;;;;;5153704;27;20203;-87
2023/08/10 06:31:58;;;;;;;1.38;0.77;;;23.00;47.20;;;;;;5154335;27;20193;-87
2023/08/10 06:34:34;;;;;;;1.02;0.70;;;22.90;46.00;;;;;;5149354;27;20712;-87
2023/08/10 06:37:05;;;;;;;3.83;0.80;;;22.60;46.50;;;;;;5146814;27;20197;-88
2023/08/10 06:39:36;;;;;;;2.15;0.60;;;22.60;46.30;;;;;;5135625;27;20194;-86
2023/08/10 06:42:07;;;;;;;0.88;0.68;;;22.50;46.30;;;;;;5132553;27;20194;-87
2023/08/10 06:44:40;;;;;;;2.00;0.60;;;22.40;46.00;;;;;;5133557;27;20665;-86
2023/08/10 06:47:11;;;;;;;1.48;0.70;;;22.20;45.50;;;;;;5132517;27;20598;-86
2023/08/10 06:49:50;;;;;;;2.38;0.70;;;22.10;45.40;;;;;;5132859;27;20418;-86
2023/08/10 06:52:21;;;;;;;1.70;0.60;;;22.10;45.50;;;;;;5132801;27;20206;-85
2023/08/10 06:54:53;;;;;;;1.98;0.75;;;22.00;43.80;;;;;;5131827;27;20202;-85
2023/08/10 06:57:24;;;;;;;2.03;0.68;;;21.90;43.80;;;;;;5133701;27;20196;-87
2023/08/10 06:59:56;;;;;;;4.70;0.70;;;21.80;44.20;;;;;;5132988;27;20194;-86
2023/08/10 07:02:27;;;;;;;1.65;0.80;;;21.80;45.10;;;;;;5150355;27;20205;-86
2023/08/10 07:04:58;;;;;;;1.58;0.68;;;21.60;44.90;;;;;;5152008;27;20550;-85
2023/08/10 07:07:29;;;;;;;3.60;0.90;;;21.50;44.50;;;;;;5152795;27;20203;-85
2023/08/10 07:10:00;;;;;;;2.88;0.70;;;21.30;44.10;;;;;;5134259;27;20216;-87
2023/08/10 07:12:31;;;;;;;3.90;1.60;;;21.20;43.70;;;;;;5114694;27;20685;-85
2023/08/10 07:15:04;;;;;;;1.40;1.23;;;21.10;44.00;;;;;;5131460;27;20196;-84
2023/08/10 07:17:35;;;;;;;1.90;1.00;;;21.10;44.20;;;;;;5131991;27;20230;-84
2023/08/10 07:20:07;;;;;;;3.67;2.40;;;21.00;44.30;;;;;;5132305;27;20202;-82
2023/08/10 07:22:37;;;;;;;2.40;0.95;;;21.00;44.40;;;;;;5131649;27;20224;-83
2023/08/10 07:25:10;;;;;;;2.72;2.28;;;20.90;44.40;;;;;;5133703;27;20306;-83
2023/08/10 07:27:41;;;;;;;2.83;1.10;;;20.80;44.80;;;;;;5133990;27;20205;-83
2023/08/10 07:30:15;;;;;;;1.75;1.20;;;20.80;44.80;;;;;;5131524;27;20246;-84
2023/08/10 07:32:46;;;;;;;2.92;1.00;;;20.70;45.10;;;;;;5131242;27;20204;-84
2023/08/10 07:35:18;;;;;;;2.72;0.80;;;20.50;45.30;;;;;;5131672;27;20233;-86
2023/08/10 07:37:49;;;;;;;4.15;0.80;;;20.40;45.50;;;;;;5132377;27;20656;-85
2023/08/10 07:40:22;;;;;;;2.15;1.40;;;20.30;46.00;;;;;;5137291;27;20189;-87
2023/08/10 07:42:53;;;;;;;2.50;1.05;;;20.20;46.50;;;;;;5146045;27;20194;-85
2023/08/10 07:45:26;;;;;;;1.23;0.80;;;20.20;46.70;;;;;;5149302;27;20201;-84
2023/08/10 07:47:56;;;;;;;2.55;1.23;;;20.10;47.30;;;;;;5154251;27;20682;-85
2023/08/10 07:50:29;;;;;;;1.65;1.02;;;20.10;47.60;;;;;;5148783;27;20194;-84
2023/08/10 07:52:59;;;;;;;2.20;0.90;;;20.00;48.50;;;;;;5131450;27;20194;-84
2023/08/10 07:55:30;;;;;;;0.85;0.68;;;19.90;48.80;;;;;;5132003;27;20205;-83
2023/08/10 07:58:01;;;;;;;1.38;0.90;;;19.80;49.40;;;;;;5138112;27;20194;-84
2023/08/10 08:00:38;;;;;;;1.38;0.90;;;19.60;50.10;;;;;;5144990;27;20393;-84
2023/08/10 08:03:10;;;;;;;1.38;0.80;;;19.60;51.30;;;;;;5140645;27;20324;-85
2023/08/10 08:05:43;;;;;;;2.05;0.95;;;19.50;51.20;;;;;;5145766;27;20193;-83
2023/08/10 08:08:14;;;;;;;2.92;1.00;;;19.60;51.70;;;;;;5136650;27;20205;-84
2023/08/10 08:10:45;;;;;;;2.13;1.20;;;19.50;52.00;;;;;;5136519;27;20193;-84
2023/08/10 08:13:16;;;;;;;1.10;0.90;;;19.40;52.70;;;;;;5140470;27;20571;-84
2023/08/10 08:15:50;;;;;;;1.95;1.00;;;19.30;52.50;;;;;;5135955;27;20687;-85
2023/08/10 08:18:45;;;;;;;1.67;1.00;;;19.20;52.90;;;;;;5135697;27;20249;-85
2023/08/10 08:21:17;;;;;;;3.30;1.10;;;19.10;53.20;;;;;;5135530;27;20232;-85
2023/08/10 08:23:48;;;;;;;3.97;1.33;;;19.10;53.80;;;;;;5136471;27;20565;-84
2023/08/10 08:26:19;;;;;;;1.70;0.75;;;19.00;54.00;;;;;;5135436;27;20691;-86
2023/08/10 08:28:51;;;;;;;3.85;1.38;;;19.00;54.30;;;;;;5137199;27;20264;-84
2023/08/10 08:31:25;;;;;;;2.25;1.13;;;18.90;54.30;;;;;;5146857;27;20281;-84
2023/08/10 08:33:56;;;;;;;1.90;0.50;;;18.90;54.50;;;;;;5139531;27;20196;-83
2023/08/10 08:36:27;;;;;;;2.97;1.05;;;18.90;54.90;;;;;;5146106;27;20693;-86
2023/08/10 08:38:58;;;;;;;4.90;1.10;;;18.90;56.00;;;;;;5147515;27;20194;-84
2023/08/10 08:41:35;;;;;;;3.50;2.00;;;18.80;55.40;;;;;;5146989;27;20193;-85
2023/08/10 08:44:07;;;;;;;3.60;1.67;;;18.80;56.00;;;;;;5154881;27;20305;-85
2023/08/10 08:46:44;;;;;;;7.07;3.22;;;18.70;56.10;;;;;;5156279;27;20193;-86
2023/08/10 08:49:16;;;;;;;1.95;1.50;;;18.70;56.20;;;;;;5135767;27;20204;-85
2023/08/10 08:51:48;;;;;;;2.63;0.80;;;18.60;56.60;;;;;;5134977;27;20200;-85
2023/08/10 08:54:19;;;;;;;3.88;1.33;;;18.50;56.70;;;;;;5137809;27;20225;-86
2023/08/10 08:56:50;;;;;;;3.65;1.30;;;18.60;57.10;;;;;;5137548;27;20223;-84
2023/08/10 08:59:21;;;;;;;2.42;1.63;;;18.60;57.50;;;;;;5150637;27;20229;-86
2023/08/10 09:01:55;;;;;;;3.67;1.70;;;18.60;57.00;;;;;;5152887;27;20185;-85
2023/08/10 09:04:26;;;;;;;2.45;1.33;;;18.50;57.10;;;;;;5137910;27;20205;-87
2023/08/10 09:06:57;;;;;;;6.05;2.22;;;18.60;57.20;;;;;;5136527;27;20200;-85
2023/08/10 09:09:29;;;;;;;2.75;1.23;;;18.50;57.80;;;;;;5134640;27;20190;-85
2023/08/10 09:12:00;;;;;;;3.83;2.30;;;18.40;57.40;;;;;;5135031;27;20197;-85
2023/08/10 09:14:31;;;;;;;2.75;1.42;;;18.30;57.70;;;;;;5134758;27;20196;-86
2023/08/10 09:17:06;;;;;;;2.72;1.40;;;18.30;57.80;;;;;;5134644;27;20229;-86
2023/08/10 09:19:41;;;;;;;4.43;1.95;;;18.40;58.10;;;;;;5135669;27;20204;-85
2023/08/10 09:22:12;;;;;;;4.05;2.50;;;18.30;58.40;;;;;;5137505;27;20216;-86
2023/08/10 09:24:50;;;;;;;3.28;1.50;;;18.30;57.90;;;;;;5141113;27;20221;-83
2023/08/10 09:27:21;;;;;;;3.55;1.70;;;18.20;57.70;;;;;;5138612;27;20258;-82
2023/08/10 09:29:54;;;;;;;2.33;1.15;;;18.20;58.20;;;;;;5134684;27;20194;-85
2023/08/10 09:32:26;;;;;;;2.00;0.85;;;18.10;58.50;;;;;;5134685;27;20190;-85
2023/08/10 09:34:57;;;;;;;1.60;1.30;;;18.20;58.50;;;;;;5136165;27;20192;-85
2023/08/10 09:37:29;;;;;;;3.25;1.45;;;18.30;58.70;;;;;;5135148;27;20224;-84
2023/08/10 09:40:03;;;;;;;3.85;1.25;;;18.30;59.30;;;;;;5148106;27;20193;-84
2023/08/10 09:42:35;;;;;;;2.53;1.50;;;18.30;58.60;;;;;;5144155;27;20220;-85
2023/08/10 09:45:10;;;;;;;5.38;2.30;;;18.30;59.00;;;;;;5152152;27;20257;-85
2023/08/10 09:47:43;;;;;;;2.15;1.27;;;18.30;60.10;;;;;;5168886;27;20210;-84
2023/08/10 09:50:15;;;;;;;4.38;2.25;;;18.30;59.20;;;;;;5152374;27;20198;-86
2023/08/10 09:52:49;;;;;;;9.70;4.53;;;18.20;59.50;;;;;;5140991;27;20271;-86
2023/08/10 09:55:20;;;;;;;4.13;1.95;;;18.10;59.60;;;;;;5135729;27;20200;-86
2023/08/10 09:57:52;;;;;;;4.38;1.30;;;18.10;59.80;;;;;;5141257;27;20273;-85
2023/08/10 10:00:23;;;;;;;6.10;1.70;;;17.90;59.70;;;;;;5139661;27;20565;-86
2023/08/10 10:02:56;;;;;;;2.97;1.63;;;17.90;60.20;;;;;;5133866;27;20186;-85
2023/08/10 10:05:27;;;;;;;4.88;1.70;;;17.80;60.40;;;;;;5134679;27;20190;-86
2023/08/10 10:07:58;;;;;;;2.47;1.30;;;17.80;60.40;;;;;;5133947;27;20186;-86
2023/08/10 10:10:32;;;;;;;2.72;1.58;;;17.70;60.70;;;;;;5134079;27;20282;-86
2023/08/10 10:13:05;;;;;;;3.10;1.67;;;17.70;61.10;;;;;;5133794;27;20273;-86
2023/08/10 10:15:38;;;;;;;2.72;1.40;;;17.70;62.10;;;;;;5134188;27;20197;-86
2023/08/10 10:18:12;;;;;;;2.92;2.00;;;17.80;61.30;;;;;;5133025;27;20301;-86
2023/08/10 10:20:45;;;;;;;3.63;2.42;;;17.80;61.00;;;;;;5134091;27;20191;-86
2023/08/10 10:23:20;;;;;;;4.78;2.60;;;17.70;61.00;;;;;;5133789;27;20214;-86
2023/08/10 10:26:03;;;;;;;5.38;1.30;;;17.70;61.30;;;;;;5133638;27;20205;-87
2023/08/10 10:28:36;;;;;;;2.40;1.08;;;17.60;62.10;;;;;;5141820;27;20559;-86
2023/08/10 10:31:11;;;;;;;2.05;0.90;;;17.50;62.30;;;;;;5154034;27;20224;-85
2023/08/10 10:33:58;;;;;;;2.53;1.10;;;17.50;63.00;;;;;;5143269;27;20209;-85
2023/08/10 10:36:28;;;;;;;1.95;1.23;;;17.50;63.10;;;;;;5152135;27;20217;-85
2023/08/10 10:39:08;;;;;;;4.38;1.15;;;17.40;63.60;;;;;;5137676;27;20194;-85
2023/08/10 10:41:42;;;;;;;1.85;1.10;;;17.40;63.60;;;;;;5133359;27;20197;-86
2023/08/10 10:44:13;;;;;;;2.67;0.95;;;17.40;63.70;;;;;;5137797;27;20200;-86
2023/08/10 10:46:44;;;;;;;3.38;1.10;;;17.30;63.90;;;;;;5141763;27;20686;-87
2023/08/10 10:49:24;;;;;;;1.85;1.15;;;17.20;64.70;;;;;;5133886;27;20197;-87
2023/08/10 10:52:06;;;;;;;2.88;1.00;;;17.30;64.90;;;;;;5133111;27;20186;-85
2023/08/10 10:54:38;;;;;;;2.78;1.25;;;17.20;65.00;;;;;;5151503;27;20196;-88
2023/08/10 10:57:10;;;;;;;2.70;1.08;;;17.00;65.60;;;;;;5135286;27;20221;-87
2023/08/10 10:59:41;;;;;;;3.67;1.08;;;17.10;66.10;;;;;;5153130;27;20194;-87
2023/08/10 11:02:12;;;;;;;1.45;0.77;;;17.10;66.10;;;;;;5147683;27;20201;-87
2023/08/10 11:04:45;;;;;;;1.35;1.00;;;17.00;66.70;;;;;;5134665;27;20206;-87
2023/08/10 11:07:16;;;;;;;4.53;1.27;;;16.90;67.40;;;;;;5133380;27;20197;-87
2023/08/10 11:09:47;;;;;;;2.90;1.30;;;16.90;67.80;;;;;;5132197;27;20201;-87
2023/08/10 11:12:19;;;;;;;3.25;1.20;;;16.90;67.90;;;;;;5142439;27;20191;-85
2023/08/10 11:14:50;;;;;;;1.73;0.80;;;17.00;68.20;;;;;;5143933;27;20195;-86
2023/08/10 11:17:22;;;;;;;3.10;0.95;;;17.00;67.80;;;;;;5140377;27;20222;-86
2023/08/10 11:19:55;;;;;;;3.08;1.15;;;17.00;68.20;;;;;;5149045;27;20194;-86
2023/08/10 11:22:26;;;;;;;4.05;1.13;;;17.00;67.70;;;;;;5135683;27;20209;-85
2023/08/10 11:24:56;;;;;;;2.17;1.00;;;17.00;68.00;;;;;;5144087;27;20202;-85
2023/08/10 11:27:27;;;;;;;3.33;1.20;;;16.80;68.10;;;;;;5152623;27;20188;-86
2023/08/10 11:29:58;;;;;;;2.22;0.80;;;16.80;68.30;;;;;;5144877;27;20186;-86
2023/08/10 11:32:39;;;;;;;4.72;0.80;;;16.70;68.70;;;;;;5148563;27;20197;-85
2023/08/10 11:35:29;;;;;;;2.05;0.98;;;16.70;69.50;;;;;;5154605;27;20253;-87
2023/08/10 11:38:00;;;;;;;2.38;0.90;;;16.70;70.40;;;;;;5156270;27;20213;-86
2023/08/10 11:40:31;;;;;;;3.67;1.00;;;16.80;70.60;;;;;;5166538;27;20193;-87
2023/08/10 11:43:14;;;;;;;3.35;1.05;;;16.70;71.10;;;;;;5152388;27;20198;-85
2023/08/10 11:45:48;;;;;;;3.55;0.90;;;16.80;71.40;;;;;;5141370;27;20201;-85
2023/08/10 11:48:22;;;;;;;2.33;0.88;;;16.80;71.40;;;;;;5155104;27;20201;-86
2023/08/10 11:51:17;;;;;;;2.25;1.00;;;16.70;72.10;;;;;;5156817;27;20193;-87
2023/08/10 11:53:57;;;;;;;1.73;0.80;;;16.60;72.30;;;;;;5162398;27;20723;-88
2023/08/10 11:56:36;;;;;;;2.83;0.80;;;16.70;72.70;;;;;;5147834;27;20217;-87
2023/08/10 11:59:15;;;;;;;2.30;0.98;;;16.80;73.00;;;;;;5159348;27;20201;-86
2023/08/10 12:01:57;;;;;;;4.07;0.98;;;16.70;73.30;;;;;;5145021;27;20256;-87
2023/08/10 12:04:40;;;;;;;1.55;0.70;;;16.70;72.90;;;;;;5144022;27;20544;-88
2023/08/10 12:07:24;;;;;;;2.88;1.02;;;16.70;73.00;;;;;;5122844;28;20668;-87
2023/08/10 12:09:55;;;;;;;1.73;0.75;;;16.60;74.00;;;;;;5142212;28;20196;-87
2023/08/10 12:12:39;;;;;;;4.72;0.70;;;16.40;74.40;;;;;;5147670;27;20190;-86
2023/08/10 12:15:16;;;;;;;2.97;1.10;;;16.30;74.80;;;;;;5142394;27;20198;-87
2023/08/10 12:17:47;;;;;;;3.60;0.90;;;16.30;75.90;;;;;;5143430;27;20226;-86
2023/08/10 12:20:19;;;;;;;3.70;1.00;;;16.30;76.70;;;;;;5144203;27;20591;-88
2023/08/10 12:22:53;;;;;;;4.60;1.27;;;16.20;77.20;;;;;;5134324;27;20224;-86
2023/08/10 12:25:28;;;;;;;3.60;0.98;;;16.10;78.00;;;;;;5165935;27;20200;-87
2023/08/10 12:27:59;;;;;;;4.22;1.00;;;16.10;79.00;;;;;;5146691;27;20184;-88
2023/08/10 12:30:30;;;;;;;3.10;1.33;;;16.00;79.80;;;;;;5147192;27;20196;-86
2023/08/10 12:33:08;;;;;;;2.72;0.95;;;16.00;80.40;;;;;;5135901;27;20186;-86
2023/08/10 12:35:45;;;;;;;3.88;1.17;;;16.10;80.90;;;;;;5143015;27;20217;-87
2023/08/10 12:38:24;;;;;;;2.95;1.02;;;16.10;81.40;;;;;;5124671;28;20251;-89
2023/08/10 12:40:57;;;;;;;3.00;0.95;;;16.10;82.00;;;;;;5148092;27;20374;-87
2023/08/10 12:43:30;;;;;;;4.90;0.98;;;16.00;82.30;;;;;;5164174;27;20233;-86
2023/08/10 12:46:11;;;;;;;3.00;0.90;;;15.90;82.90;;;;;;5166356;27;20558;-88
2023/08/10 12:48:43;;;;;;;1.77;0.60;;;15.80;83.80;;;;;;5155964;27;20227;-86
2023/08/10 12:51:13;;;;;;;1.40;0.80;;;15.80;85.00;;;;;;5160656;27;20201;-87
2023/08/10 12:53:59;;;;;;;5.35;0.90;;;15.90;85.20;;;;;;5165903;27;20181;-88
2023/08/10 12:56:41;;;;;;;3.88;0.90;;;15.90;85.00;;;;;;5165041;27;20231;-87
2023/08/10 12:59:20;;;;;;;1.70;0.93;;;15.80;85.90;;;;;;5166654;27;20223;-86
2023/08/10 13:01:52;;;;;;;2.72;0.80;;;15.70;86.30;;;;;;5166704;27;20193;-87
2023/08/10 13:04:24;;;;;;;7.32;1.02;;;15.70;87.00;;;;;;5147423;27;20200;-86
2023/08/10 13:06:56;;;;;;;1.65;0.80;;;15.70;87.40;;;;;;5156727;27;20200;-87
2023/08/10 13:09:32;;;;;;;5.53;0.80;;;15.70;87.70;;;;;;5146330;27;20224;-85
2023/08/10 13:12:07;;;;;;;4.13;0.85;;;15.60;88.30;;;;;;5157845;27;20210;-86
2023/08/10 13:14:37;;;;;;;3.55;0.90;;;15.70;88.70;;;;;;5142587;27;20213;-87
2023/08/10 13:17:09;;;;;;;3.15;0.75;;;15.70;88.90;;;;;;5155583;27;20303;-87